Time;durP1;ratioP1;P1;durP2;ratioP2;P2;SDS_P1;SDS_P2;PMS_P1;PMS_P2;Temp;Humidity;BMP_temperature;BMP_pressure;BME280_temperature;BME280_humidity;BME280_pressure;Samples;Min_cycle;Max_cycle;Signal;HPM_P1;HPM_P2
2022/09/19 00:00:06;;;;;;;6.38;1.70;;;;;;;10.83;100.00;100050.75;5190819;28;20124;-75
2022/09/19 00:02:36;;;;;;;5.43;1.70;;;;;;;10.80;100.00;100061.34;5193994;28;20543;-75
2022/09/19 00:05:08;;;;;;;5.93;1.70;;;;;;;10.84;100.00;100056.84;5191309;28;20495;-77
2022/09/19 00:07:39;;;;;;;6.28;1.67;;;;;;;10.85;100.00;100056.75;5190858;28;20021;-76
2022/09/19 00:10:09;;;;;;;7.43;1.80;;;;;;;10.81;100.00;100056.97;5191280;28;20030;-76
2022/09/19 00:12:39;;;;;;;3.60;1.67;;;;;;;10.85;100.00;100063.78;5181097;28;20037;-76
2022/09/19 00:15:10;;;;;;;7.20;1.98;;;;;;;10.80;100.00;100068.34;5186850;28;20022;-74
2022/09/19 00:17:40;;;;;;;5.72;2.15;;;;;;;10.81;100.00;100064.81;5185085;28;20032;-75
2022/09/19 00:20:10;;;;;;;4.80;2.00;;;;;;;10.74;100.00;100069.47;5191826;28;20131;-76
2022/09/19 00:24:45;;;;;;;8.38;1.70;;;;;;;10.79;100.00;100074.47;5183632;28;20380;-75
2022/09/19 00:25:31;;;;;;;7.43;1.95;;;;;;;10.84;100.00;100083.00;5185189;28;20022;-75
2022/09/19 00:28:01;;;;;;;6.07;1.77;;;;;;;10.75;100.00;100086.00;5191179;28;20022;-75
2022/09/19 00:30:37;;;;;;;3.72;1.70;;;;;;;10.83;100.00;100089.13;5193442;28;20368;-76
2022/09/19 00:33:08;;;;;;;7.13;2.03;;;;;;;10.81;100.00;100094.41;5189884;28;20037;-76
2022/09/19 00:35:38;;;;;;;2.67;1.40;;;;;;;10.82;100.00;100103.13;5202610;22;20038;-78
2022/09/19 00:38:08;;;;;;;3.95;1.60;;;;;;;10.94;100.00;100099.94;5180056;28;20029;-78
2022/09/19 00:40:39;;;;;;;5.20;1.80;;;;;;;10.91;100.00;100105.31;5181660;28;20033;-78
2022/09/19 00:43:13;;;;;;;2.83;1.60;;;;;;;10.88;100.00;100105.47;5181243;28;20267;-78
2022/09/19 00:45:44;;;;;;;5.22;1.77;;;;;;;10.96;100.00;100105.94;5179877;28;20079;-78
2022/09/19 00:48:17;;;;;;;8.20;1.80;;;;;;;10.86;100.00;100112.53;5179407;28;20037;-77
2022/09/19 00:50:52;;;;;;;3.67;1.70;;;;;;;10.80;100.00;100118.00;5181934;28;20472;-78
2022/09/19 00:53:24;;;;;;;6.22;2.10;;;;;;;10.85;100.00;100116.06;5186881;28;20040;-78
2022/09/19 00:55:55;;;;;;;6.28;2.00;;;;;;;10.88;100.00;100119.34;5187581;28;20022;-76
2022/09/19 00:58:32;;;;;;;5.50;1.60;;;;;;;10.93;100.00;100120.03;5179414;28;20109;-78
2022/09/19 01:01:03;;;;;;;5.82;1.73;;;;;;;10.87;100.00;100119.44;5178031;28;20041;-78
2022/09/19 01:03:33;;;;;;;5.18;1.70;;;;;;;10.96;100.00;100122.50;5181095;28;20025;-77
2022/09/19 01:06:13;;;;;;;6.95;2.00;;;;;;;10.86;100.00;100133.44;5185042;28;20030;-78
2022/09/19 01:09:08;;;;;;;5.82;2.00;;;;;;;10.83;100.00;100130.97;5183308;28;20385;-78
2022/09/19 01:12:03;;;;;;;4.60;1.95;;;;;;;10.88;100.00;100132.44;5178453;28;20030;-78
2022/09/19 01:14:37;;;;;;;6.93;2.22;;;;;;;10.88;100.00;100136.81;5177261;28;20156;-78
2022/09/19 01:17:33;;;;;;;4.95;2.17;;;;;;;10.88;100.00;100157.75;5179435;28;20026;-79
2022/09/19 01:20:18;;;;;;;4.75;2.28;;;;;;;10.94;100.00;100154.84;5177019;28;20034;-78
2022/09/19 01:23:23;;;;;;;4.53;1.50;;;;;;;10.89;100.00;100155.03;5182444;28;20037;-78
2022/09/19 01:25:53;;;;;;;2.42;1.50;;;;;;;10.90;100.00;100171.59;5187314;28;20025;-78
2022/09/19 01:28:29;;;;;;;5.73;1.87;;;;;;;10.91;100.00;100168.06;5179497;28;20018;-78
2022/09/19 01:31:19;;;;;;;3.63;1.70;;;;;;;10.93;100.00;100166.22;5175938;28;20280;-78
2022/09/19 01:34:02;;;;;;;3.72;1.45;;;;;;;10.88;100.00;100171.66;5181068;28;20030;-78
2022/09/19 01:36:43;;;;;;;4.03;1.50;;;;;;;10.91;100.00;100174.16;5178004;28;20261;-76
2022/09/19 01:39:21;;;;;;;4.38;1.27;;;;;;;10.89;100.00;100177.72;5179530;28;20030;-78
2022/09/19 01:41:53;;;;;;;4.10;1.17;;;;;;;10.89;100.00;100181.19;5180036;28;20503;-78
2022/09/19 01:44:26;;;;;;;3.83;1.20;;;;;;;10.87;100.00;100187.41;5180190;28;20080;-78
2022/09/19 01:47:05;;;;;;;6.15;1.35;;;;;;;10.88;100.00;100189.13;5178866;28;20084;-79
2022/09/19 01:50:01;;;;;;;4.18;1.20;;;;;;;10.75;100.00;100195.78;5174986;28;20517;-78
2022/09/19 01:52:56;;;;;;;3.40;1.00;;;;;;;10.81;100.00;100200.72;5179068;28;20544;-78
2022/09/19 01:55:39;;;;;;;5.45;0.95;;;;;;;10.90;100.00;100197.72;5188190;28;20014;-77
2022/09/19 01:58:23;;;;;;;5.20;1.08;;;;;;;10.86;100.00;100204.00;5176040;28;20030;-78
2022/09/19 02:01:04;;;;;;;2.63;0.80;;;;;;;10.92;100.00;100212.44;5178458;28;20486;-77
2022/09/19 02:03:37;;;;;;;1.65;0.63;;;;;;;10.91;100.00;100209.88;5177525;28;20033;-78
2022/09/19 02:06:19;;;;;;;2.75;0.80;;;;;;;10.87;100.00;100210.94;5183532;28;20104;-78
2022/09/19 02:08:59;;;;;;;7.47;1.00;;;;;;;10.84;100.00;100222.38;5183464;28;20567;-78
2022/09/19 02:11:30;;;;;;;3.35;0.70;;;;;;;10.81;100.00;100219.03;5178903;28;20549;-77
2022/09/19 02:14:17;;;;;;;2.60;0.80;;;;;;;10.64;100.00;100219.75;5177802;28;20038;-78
2022/09/19 02:16:57;;;;;;;2.53;0.85;;;;;;;10.71;100.00;100217.72;5178372;28;20032;-78
2022/09/19 02:19:33;;;;;;;3.25;0.82;;;;;;;10.71;100.00;100215.13;5179137;28;20395;-78
2022/09/19 02:22:10;;;;;;;2.92;0.90;;;;;;;10.68;100.00;100218.69;5176592;28;20037;-78
2022/09/19 02:24:45;;;;;;;2.90;0.70;;;;;;;10.71;100.00;100212.50;5182133;28;20075;-78
2022/09/19 02:27:20;;;;;;;5.40;1.10;;;;;;;10.71;100.00;100222.94;5176853;28;20049;-78
2022/09/19 02:29:57;;;;;;;1.55;0.60;;;;;;;10.61;100.00;100226.84;5178812;28;20136;-78
2022/09/19 02:32:28;;;;;;;2.47;0.80;;;;;;;10.76;100.00;100228.84;5177620;28;20028;-78
2022/09/19 02:34:59;;;;;;;2.88;0.70;;;;;;;10.74;100.00;100225.44;5178846;28;20034;-78
2022/09/19 02:37:35;;;;;;;3.30;0.70;;;;;;;10.77;100.00;100233.13;5179966;28;20033;-76
2022/09/19 02:40:12;;;;;;;4.57;0.90;;;;;;;10.79;100.00;100234.78;5178621;28;20032;-78
2022/09/19 02:42:56;;;;;;;3.92;0.70;;;;;;;10.73;100.00;100236.81;5179863;28;20247;-77
2022/09/19 02:45:38;;;;;;;4.63;0.93;;;;;;;10.68;100.00;100238.78;5178732;28;20021;-77
2022/09/19 02:48:26;;;;;;;2.92;0.75;;;;;;;10.82;100.00;100241.66;5175533;28;20037;-78
2022/09/19 02:51:09;;;;;;;5.15;1.00;;;;;;;10.84;100.00;100245.88;5179914;28;20054;-78
2022/09/19 02:53:44;;;;;;;2.00;0.60;;;;;;;10.85;100.00;100249.38;5183560;28;20025;-78
2022/09/19 02:56:17;;;;;;;3.60;0.88;;;;;;;10.85;100.00;100247.59;5184331;28;20550;-78
2022/09/19 02:58:57;;;;;;;5.07;0.88;;;;;;;10.83;100.00;100253.81;5178125;28;20456;-77
2022/09/19 03:01:31;;;;;;;3.88;1.10;;;;;;;10.87;100.00;100255.38;5178778;28;20476;-77
2022/09/19 03:04:14;;;;;;;4.47;0.93;;;;;;;10.81;100.00;100276.53;5187530;28;20145;-77
2022/09/19 03:07:12;;;;;;;4.25;0.80;;;;;;;10.81;100.00;100258.22;5176257;28;20076;-78
2022/09/19 03:09:53;;;;;;;6.72;1.20;;;;;;;10.66;100.00;100277.19;5176367;28;20442;-77
2022/09/19 03:12:30;;;;;;;4.53;1.10;;;;;;;10.63;100.00;100275.53;5178902;28;20026;-77
2022/09/19 03:15:00;;;;;;;3.65;1.08;;;;;;;10.69;100.00;100277.88;5172558;28;20116;-78
2022/09/19 03:17:38;;;;;;;6.05;1.42;;;;;;;10.67;100.00;100278.88;5176799;28;20065;-79
2022/09/19 03:20:11;;;;;;;3.80;1.40;;;;;;;10.63;100.00;100288.59;5178552;28;20029;-77
2022/09/19 03:22:41;;;;;;;6.05;1.60;;;;;;;10.60;100.00;100293.09;5180137;28;20028;-78
2022/09/19 03:25:14;;;;;;;4.28;1.70;;;;;;;10.59;100.00;100296.63;5188348;28;20025;-78
2022/09/19 03:27:44;;;;;;;4.53;1.70;;;;;;;10.58;100.00;100297.53;5176927;28;20037;-78
2022/09/19 03:30:15;;;;;;;6.25;1.90;;;;;;;10.49;100.00;100296.13;5178295;28;20173;-78
2022/09/19 03:32:45;;;;;;;5.80;1.98;;;;;;;10.56;100.00;100299.34;5179119;28;20034;-77
2022/09/19 03:35:15;;;;;;;5.88;2.25;;;;;;;10.56;100.00;100307.19;5178945;28;20034;-78
2022/09/19 03:37:46;;;;;;;5.18;2.60;;;;;;;10.60;100.00;100304.41;5176404;28;20034;-78
2022/09/19 03:40:17;;;;;;;8.60;2.72;;;;;;;10.63;100.00;100309.50;5176788;28;20066;-78
2022/09/19 03:42:51;;;;;;;8.93;3.00;;;;;;;10.58;100.00;100313.22;5177281;28;20026;-77
2022/09/19 03:45:22;;;;;;;13.48;2.97;;;;;;;10.52;100.00;100305.63;5182342;28;20036;-78
2022/09/19 03:47:52;;;;;;;10.73;3.15;;;;;;;10.62;100.00;100312.16;5176897;28;20423;-78
2022/09/19 03:50:23;;;;;;;5.78;3.10;;;;;;;10.63;100.00;100314.72;5177797;28;20026;-77
2022/09/19 03:52:54;;;;;;;6.15;2.97;;;;;;;10.62;100.00;100320.00;5181214;28;20435;-77
2022/09/19 03:55:25;;;;;;;8.48;2.88;;;;;;;10.55;100.00;100321.19;5185814;28;20026;-78
2022/09/19 03:57:55;;;;;;;9.48;3.45;;;;;;;10.64;100.00;100321.66;5177453;28;20460;-78
2022/09/19 04:00:25;;;;;;;9.70;3.22;;;;;;;10.62;100.00;100322.63;5182796;28;20502;-78
2022/09/19 04:02:56;;;;;;;6.07;3.45;;;;;;;10.58;100.00;100327.13;5182910;28;20144;-78
2022/09/19 04:05:26;;;;;;;5.97;3.70;;;;;;;10.60;100.00;100329.66;5184707;28;20018;-78
2022/09/19 04:07:57;;;;;;;8.98;3.63;;;;;;;10.56;100.00;100328.97;5185907;28;20469;-77
2022/09/19 04:10:27;;;;;;;7.63;4.22;;;;;;;10.64;100.00;100331.25;5183849;28;20069;-78
2022/09/19 04:12:57;;;;;;;9.32;4.32;;;;;;;10.58;100.00;100331.50;5181591;28;20036;-78
2022/09/19 04:15:28;;;;;;;8.63;3.85;;;;;;;10.55;100.00;100337.69;5179319;28;20160;-77
2022/09/19 04:17:58;;;;;;;9.43;3.97;;;;;;;10.62;100.00;100340.91;5183052;28;20034;-79
2022/09/19 04:20:30;;;;;;;12.05;4.05;;;;;;;10.63;100.00;100345.22;5172112;28;20487;-78
2022/09/19 04:23:00;;;;;;;9.57;4.05;;;;;;;10.49;100.00;100343.16;5181889;28;20030;-77
2022/09/19 04:25:35;;;;;;;9.55;3.80;;;;;;;10.56;100.00;100349.00;5190276;28;20022;-78
2022/09/19 04:28:09;;;;;;;12.05;4.45;;;;;;;10.63;100.00;100351.31;5181126;28;20213;-78
2022/09/19 04:30:42;;;;;;;10.52;4.40;;;;;;;10.62;100.00;100353.97;5181371;28;20024;-78
2022/09/19 04:33:14;;;;;;;7.30;3.78;;;;;;;10.46;100.00;100348.50;5182272;28;20025;-78
2022/09/19 04:35:45;;;;;;;6.57;3.60;;;;;;;10.42;100.00;100354.78;5179378;28;20061;-78
2022/09/19 04:38:18;;;;;;;8.27;3.35;;;;;;;10.44;100.00;100358.19;5179532;28;20084;-78
2022/09/19 04:40:49;;;;;;;8.48;3.80;;;;;;;10.46;100.00;100360.72;5181423;28;20476;-78
2022/09/19 04:43:21;;;;;;;9.35;3.25;;;;;;;10.55;100.00;100358.59;5181448;28;20022;-78
2022/09/19 04:45:52;;;;;;;9.43;3.17;;;;;;;10.58;100.00;100360.25;5181011;28;20032;-78
2022/09/19 04:48:23;;;;;;;7.95;2.65;;;;;;;10.49;100.00;100368.47;5177975;28;20033;-77
2022/09/19 04:50:54;;;;;;;8.88;2.97;;;;;;;10.51;100.00;100366.63;5179304;28;20050;-78
2022/09/19 04:53:27;;;;;;;9.05;2.78;;;;;;;10.44;100.00;100366.00;5185084;28;20523;-77
2022/09/19 04:55:57;;;;;;;7.35;3.30;;;;;;;10.38;100.00;100376.66;5186070;28;20026;-78
2022/09/19 04:58:28;;;;;;;9.52;2.72;;;;;;;10.44;100.00;100372.97;5178882;28;20113;-78
2022/09/19 05:00:58;;;;;;;7.03;2.67;;;;;;;10.34;100.00;100376.88;5182516;28;20025;-78
2022/09/19 05:03:30;;;;;;;5.85;2.65;;;;;;;10.26;100.00;100384.13;5185926;28;20353;-78
2022/09/19 05:06:00;;;;;;;8.40;2.83;;;;;;;10.29;100.00;100384.88;5187923;28;20061;-77
2022/09/19 05:08:32;;;;;;;9.50;2.60;;;;;;;10.34;100.00;100382.09;5183835;28;20129;-77
2022/09/19 05:11:05;;;;;;;7.35;2.38;;;;;;;10.25;100.00;100390.25;5184439;28;20038;-78
2022/09/19 05:13:38;;;;;;;10.18;2.78;;;;;;;10.35;100.00;100391.63;5185506;28;20403;-77
2022/09/19 05:16:09;;;;;;;8.35;2.60;;;;;;;10.30;100.00;100393.53;5181273;28;20028;-78
2022/09/19 05:18:40;;;;;;;7.78;2.90;;;;;;;10.26;100.00;100407.63;5186788;28;20026;-77
2022/09/19 05:21:14;;;;;;;12.57;3.10;;;;;;;10.21;100.00;100410.44;5185358;28;20033;-77
2022/09/19 05:23:44;;;;;;;7.13;2.72;;;;;;;10.10;100.00;100411.72;5189064;28;20182;-78
2022/09/19 05:26:16;;;;;;;8.23;2.90;;;;;;;10.16;100.00;100414.13;5185018;28;20961;-78
2022/09/19 05:28:46;;;;;;;11.07;3.13;;;;;;;10.14;100.00;100418.56;5179850;28;20030;-78
2022/09/19 05:31:18;;;;;;;12.02;3.20;;;;;;;10.23;100.00;100413.84;5179512;28;20040;-78
2022/09/19 05:33:49;;;;;;;10.60;3.08;;;;;;;10.10;100.00;100425.63;5180818;28;20022;-79
2022/09/19 05:36:20;;;;;;;9.35;2.92;;;;;;;10.16;100.00;100419.34;5182729;28;20558;-78
2022/09/19 05:38:52;;;;;;;8.10;3.00;;;;;;;10.08;100.00;100421.34;5180485;28;20037;-79
2022/09/19 05:41:22;;;;;;;10.90;3.40;;;;;;;10.22;100.00;100419.09;5180659;28;20033;-77
2022/09/19 05:43:52;;;;;;;8.75;3.00;;;;;;;10.13;100.00;100424.69;5179780;28;20026;-78
2022/09/19 05:46:23;;;;;;;9.75;3.35;;;;;;;10.20;100.00;100424.38;5179782;28;20026;-78
2022/09/19 05:48:53;;;;;;;7.00;2.97;;;;;;;10.16;100.00;100438.44;5186581;28;20018;-79
2022/09/19 05:51:24;;;;;;;8.57;3.35;;;;;;;10.24;100.00;100430.34;5186450;28;20041;-79
2022/09/19 05:53:56;;;;;;;13.60;3.72;;;;;;;10.16;100.00;100440.22;5195563;28;20069;-79
2022/09/19 05:56:26;;;;;;;9.75;3.30;;;;;;;10.24;100.00;100440.78;5188010;28;20030;-79
2022/09/19 05:58:56;;;;;;;5.88;2.95;;;;;;;10.15;100.00;100441.97;5184043;28;20038;-79
2022/09/19 06:01:26;;;;;;;12.30;3.08;;;;;;;10.27;100.00;100444.16;5186225;28;20065;-79
2022/09/19 06:03:57;;;;;;;12.00;3.45;;;;;;;10.29;100.00;100449.31;5184678;28;20037;-79
2022/09/19 06:06:27;;;;;;;9.15;3.03;;;;;;;10.44;100.00;100448.75;5181824;28;20452;-77
2022/09/19 06:08:58;;;;;;;14.02;3.45;;;;;;;10.68;100.00;100451.28;5179808;28;20496;-79
2022/09/19 06:11:29;;;;;;;9.48;2.85;;;;;;;10.61;100.00;100454.19;5180947;28;20435;-77
2022/09/19 06:14:14;;;;;;;8.23;2.95;;;;;;;10.64;100.00;100462.78;5180626;28;20108;-77
2022/09/19 06:16:44;;;;;;;8.47;2.50;;;;;;;10.69;100.00;100465.22;5176863;28;20022;-79
2022/09/19 06:19:14;;;;;;;14.57;3.22;;;;;;;10.70;100.00;100461.69;5180104;28;20036;-78
2022/09/19 06:21:45;;;;;;;7.30;2.30;;;;;;;10.70;100.00;100459.94;5180943;28;20075;-79
2022/09/19 06:24:15;;;;;;;11.48;3.00;;;;;;;10.85;100.00;100471.56;5187746;28;20112;-79
2022/09/19 06:26:46;;;;;;;8.48;2.63;;;;;;;10.88;100.00;100474.06;5190550;28;20033;-78
2022/09/19 06:29:16;;;;;;;7.95;2.65;;;;;;;11.14;100.00;100482.59;5180565;28;20492;-79
2022/09/19 06:31:47;;;;;;;11.40;2.30;;;;;;;11.16;100.00;100473.81;5183756;28;20029;-78
2022/09/19 06:34:17;;;;;;;9.05;2.15;;;;;;;11.20;100.00;100470.16;5197492;28;20025;-79
2022/09/19 06:36:47;;;;;;;6.05;1.95;;;;;;;11.07;100.00;100479.38;5197100;22;20141;-70
2022/09/19 06:39:18;;;;;;;11.02;1.98;;;;;;;11.21;100.00;100487.53;5168473;28;20038;-70
2022/09/19 06:41:48;;;;;;;9.95;2.60;;;;;;;11.25;100.00;100483.88;5167387;28;20041;-70
2022/09/19 06:44:19;;;;;;;11.05;2.42;;;;;;;11.41;100.00;100490.22;5167770;28;20042;-70
2022/09/19 06:46:49;;;;;;;12.82;2.60;;;;;;;11.29;100.00;100489.84;5172514;28;20034;-70
2022/09/19 06:49:20;;;;;;;9.15;2.45;;;;;;;11.18;100.00;100498.13;5175289;28;20384;-70
2022/09/19 06:51:50;;;;;;;8.82;2.85;;;;;;;11.44;100.00;100500.53;5174473;28;20024;-70
2022/09/19 06:54:22;;;;;;;9.40;2.65;;;;;;;11.66;100.00;100506.66;5174091;28;20046;-71
2022/09/19 06:56:53;;;;;;;11.48;2.80;;;;;;;11.74;100.00;100508.94;5169234;28;20313;-70
2022/09/19 06:59:23;;;;;;;12.00;2.95;;;;;;;11.83;100.00;100509.44;5171395;28;20037;-70
2022/09/19 07:01:53;;;;;;;11.80;2.58;;;;;;;12.05;100.00;100510.22;5167678;28;20027;-71
2022/09/19 07:04:23;;;;;;;8.95;2.30;;;;;;;12.35;100.00;100518.53;5167585;28;20060;-70
2022/09/19 07:06:56;;;;;;;8.85;1.95;;;;;;;12.44;100.00;100512.91;5171673;28;20022;-70
2022/09/19 07:09:26;;;;;;;8.80;2.45;;;;;;;13.40;100.00;100511.91;5172159;28;20037;-70
2022/09/19 07:11:57;;;;;;;9.95;2.10;;;;;;;14.67;100.00;100518.50;5170800;28;20030;-70
2022/09/19 07:14:28;;;;;;;9.60;2.00;;;;;;;16.15;88.98;100504.72;5170190;28;20030;-71
2022/09/19 07:16:58;;;;;;;6.60;2.00;;;;;;;15.79;88.78;100511.28;5171857;28;20057;-71
2022/09/19 07:19:29;;;;;;;5.93;1.80;;;;;;;16.94;86.63;100517.47;5171367;28;20026;-71
2022/09/19 07:21:59;;;;;;;6.60;1.98;;;;;;;17.60;80.70;100514.03;5171846;28;20030;-71
2022/09/19 07:24:29;;;;;;;7.97;2.28;;;;;;;17.45;82.52;100517.66;5187785;28;20099;-71
2022/09/19 07:26:59;;;;;;;9.25;2.25;;;;;;;17.76;83.56;100513.84;5174561;28;20450;-71
2022/09/19 07:29:30;;;;;;;9.27;2.05;;;;;;;17.19;83.71;100520.25;5165715;28;20030;-71
2022/09/19 07:32:01;;;;;;;8.82;2.25;;;;;;;16.58;85.10;100530.25;5174131;28;20041;-71
2022/09/19 07:34:32;;;;;;;7.97;2.17;;;;;;;16.28;87.72;100529.44;5190035;28;20043;-71
2022/09/19 07:37:02;;;;;;;10.30;2.70;;;;;;;15.40;91.98;100527.56;5168706;28;20029;-71
2022/09/19 07:39:33;;;;;;;14.50;2.70;;;;;;;14.81;98.05;100555.44;5166294;28;20054;-71
2022/09/19 07:42:03;;;;;;;9.30;3.05;;;;;;;14.61;100.00;100552.16;5167210;28;20045;-71
2022/09/19 07:44:33;;;;;;;10.30;3.38;;;;;;;14.68;99.34;100549.13;5170020;28;20044;-71
2022/09/19 07:49:56;;;;;;;8.48;3.20;;;;;;;14.18;100.00;100560.53;5167335;28;20395;-71
2022/09/19 07:52:26;;;;;;;14.25;3.88;;;;;;;13.90;100.00;100560.19;5171071;28;20029;-71
2022/09/19 07:54:56;;;;;;;10.15;3.92;;;;;;;13.76;100.00;100557.38;5189536;28;20029;-71
2022/09/19 07:57:27;;;;;;;15.90;4.38;;;;;;;13.74;100.00;100569.75;5169300;28;20026;-71
2022/09/19 07:59:57;;;;;;;12.27;4.22;;;;;;;13.64;100.00;100568.47;5168569;28;20033;-71
2022/09/19 08:02:27;;;;;;;15.43;4.70;;;;;;;13.39;100.00;100570.56;5182108;28;20487;-70
2022/09/19 08:04:58;;;;;;;12.73;4.50;;;;;;;14.10;100.00;100568.78;5191555;28;20026;-70
2022/09/19 08:07:28;;;;;;;15.10;4.82;;;;;;;14.44;100.00;100565.34;5169434;28;20085;-71
2022/09/19 08:09:59;;;;;;;14.60;4.13;;;;;;;14.17;100.00;100574.59;5172324;28;20104;-70
2022/09/19 08:12:30;;;;;;;16.88;4.35;;;;;;;14.34;100.00;100570.22;5169441;28;20233;-70
2022/09/19 08:15:01;;;;;;;17.08;5.10;;;;;;;14.29;100.00;100577.47;5173339;28;20033;-71
2022/09/19 08:17:31;;;;;;;13.38;4.75;;;;;;;14.27;100.00;100581.94;5170926;28;20030;-70
2022/09/19 08:20:03;;;;;;;13.40;3.97;;;;;;;14.47;100.00;100584.44;5171134;28;20388;-70
2022/09/19 08:22:34;;;;;;;13.32;4.75;;;;;;;14.82;100.00;100583.47;5178281;28;20040;-70
2022/09/19 08:25:05;;;;;;;15.75;4.13;;;;;;;15.82;95.94;100564.69;5192503;28;20631;-70
2022/09/19 08:27:37;;;;;;;13.05;3.78;;;;;;;15.71;98.04;100580.25;5171097;28;20037;-70
2022/09/19 08:30:08;;;;;;;11.23;3.55;;;;;;;16.01;97.93;100580.31;5169541;28;20042;-70
2022/09/19 08:32:38;;;;;;;15.63;3.58;;;;;;;15.90;97.59;100580.06;5183997;28;20095;-70
2022/09/19 08:35:08;;;;;;;8.55;2.67;;;;;;;15.98;94.60;100580.47;5189309;28;20061;-70
2022/09/19 08:37:38;;;;;;;12.43;3.28;;;;;;;15.58;96.72;100584.53;5169460;28;20018;-70
2022/09/19 08:40:21;;;;;;;13.93;3.35;;;;;;;15.46;98.85;100598.38;5170297;28;20042;-70
2022/09/19 08:43:08;;;;;;;13.55;3.03;;;;;;;16.10;98.17;100587.69;5171097;28;20095;-71
2022/09/19 08:45:59;;;;;;;10.82;2.75;;;;;;;15.56;96.68;100596.06;5168262;28;20037;-69
2022/09/19 08:48:38;;;;;;;11.25;2.53;;;;;;;15.48;99.28;100596.50;5162536;28;20038;-71
2022/09/19 08:51:20;;;;;;;12.32;3.10;;;;;;;15.57;100.00;100595.97;5174296;28;20037;-70
2022/09/19 08:53:59;;;;;;;18.73;2.90;;;;;;;15.26;99.50;100606.47;5183913;28;20080;-71
2022/09/19 08:56:29;;;;;;;10.93;2.40;;;;;;;16.22;99.07;100601.00;5175280;28;20037;-70
2022/09/19 08:59:04;;;;;;;11.45;2.70;;;;;;;16.74;94.00;100589.09;5167071;28;20154;-71
2022/09/19 09:01:36;;;;;;;8.43;2.10;;;;;;;17.37;90.01;100595.72;5171091;28;20295;-70
2022/09/19 09:04:24;;;;;;;13.75;2.72;;;;;;;17.08;89.56;100599.28;5181233;28;20060;-71
2022/09/19 09:06:57;;;;;;;12.02;2.30;;;;;;;16.30;92.68;100597.91;5171164;28;20395;-71
2022/09/19 09:09:46;;;;;;;8.30;2.17;;;;;;;16.20;94.99;100604.69;5166974;28;20392;-71
2022/09/19 09:12:28;;;;;;;14.95;2.50;;;;;;;15.89;97.78;100608.19;5170035;28;20026;-70
2022/09/19 09:15:10;;;;;;;14.27;2.30;;;;;;;16.37;94.40;100605.41;5165669;28;20031;-70
2022/09/19 09:18:02;;;;;;;10.57;2.20;;;;;;;16.86;91.52;100605.06;5168180;28;20034;-70
2022/09/19 09:20:53;;;;;;;12.98;2.20;;;;;;;16.67;90.79;100606.25;5167568;28;20030;-71
2022/09/19 09:23:34;;;;;;;12.43;2.03;;;;;;;17.04;88.90;100597.78;5181296;28;20030;-70
2022/09/19 09:26:12;;;;;;;8.23;1.90;;;;;;;16.89;90.67;100606.63;5179136;28;20038;-70
2022/09/19 09:28:47;;;;;;;14.35;2.55;;;;;;;16.76;92.87;100605.69;5172020;28;20076;-70
2022/09/19 09:31:25;;;;;;;8.10;1.77;;;;;;;16.78;91.34;100602.00;5174244;28;20021;-71
2022/09/19 09:34:07;;;;;;;11.48;2.05;;;;;;;16.61;92.09;100603.97;5182886;28;20276;-71
2022/09/19 09:36:45;;;;;;;14.90;1.98;;;;;;;16.27;93.53;100606.88;5175559;28;20034;-71
2022/09/19 09:39:27;;;;;;;13.02;2.10;;;;;;;16.10;94.71;100601.72;5172859;28;20571;-71
2022/09/19 09:42:00;;;;;;;10.40;2.13;;;;;;;16.06;94.51;100607.25;5169680;28;20025;-71
2022/09/19 09:45:03;;;;;;;7.85;1.90;;;;;;;15.81;94.78;100612.19;5180307;28;20033;-70
2022/09/19 09:47:56;;;;;;;10.60;2.47;;;;;;;15.81;95.78;100615.72;5164134;28;20038;-71
2022/09/19 09:50:46;;;;;;;9.80;1.98;;;;;;;15.82;96.50;100617.41;5166718;28;20237;-73
2022/09/19 09:53:46;;;;;;;10.10;1.70;;;;;;;15.57;98.62;100614.41;5175467;28;20029;-71
2022/09/19 09:56:24;;;;;;;10.52;1.90;;;;;;;15.34;100.00;100604.31;5168214;28;20033;-71
2022/09/19 10:03:34;;;;;;;9.40;1.58;;;;;;;15.50;100.00;100613.06;5179800;28;20038;-71
2022/09/19 10:05:25;;;;;;;16.63;2.15;;;;;;;15.65;100.00;100609.59;5179704;28;20037;-71
2022/09/19 10:08:06;;;;;;;11.50;1.85;;;;;;;15.94;100.00;100616.72;5172933;28;20022;-71
2022/09/19 10:10:38;;;;;;;10.07;1.60;;;;;;;16.04;99.77;100612.59;5171939;28;20034;-71
2022/09/19 10:13:12;;;;;;;10.88;1.63;;;;;;;16.05;98.20;100610.84;5166416;28;20040;-70
2022/09/19 10:15:42;;;;;;;11.40;1.60;;;;;;;16.11;95.91;100608.69;5169294;28;20030;-70
2022/09/19 10:18:15;;;;;;;10.77;1.80;;;;;;;16.35;95.60;100606.47;5167300;28;20042;-71
2022/09/19 10:20:52;;;;;;;11.93;1.70;;;;;;;16.46;96.89;100610.16;5168312;28;20111;-73
2022/09/19 10:23:29;;;;;;;7.10;1.75;;;;;;;16.86;95.28;100610.34;5178603;28;20026;-71
2022/09/19 10:26:03;;;;;;;11.63;1.80;;;;;;;17.08;94.81;100600.16;5178567;28;20030;-71
2022/09/19 10:28:37;;;;;;;8.98;1.60;;;;;;;17.01;91.81;100604.09;5168987;28;20041;-71
2022/09/19 10:31:40;;;;;;;7.70;1.73;;;;;;;16.57;90.96;100593.69;5170255;28;20065;-71
2022/09/19 10:34:26;;;;;;;10.63;2.15;;;;;;;16.20;93.32;100597.59;5163315;28;20073;-71
2022/09/19 10:37:02;;;;;;;9.00;1.55;;;;;;;16.57;90.69;100586.59;5176428;28;20510;-71
2022/09/19 10:39:44;;;;;;;7.28;1.38;;;;;;;16.61;90.78;100595.19;5172946;28;20480;-71
2022/09/19 10:42:26;;;;;;;8.88;1.30;;;;;;;16.87;89.88;100590.03;5166557;28;20516;-71
2022/09/19 10:44:59;;;;;;;8.98;1.50;;;;;;;16.94;88.23;100586.94;5166697;28;20105;-71
2022/09/19 10:47:35;;;;;;;13.15;1.90;;;;;;;16.92;90.23;100593.25;5169150;28;20385;-70
2022/09/19 10:50:12;;;;;;;12.63;1.90;;;;;;;16.99;90.06;100579.56;5167252;28;20034;-71
2022/09/19 10:52:44;;;;;;;6.50;1.67;;;;;;;17.18;89.38;100584.59;5171381;28;20064;-70
2022/09/19 10:55:22;;;;;;;7.47;1.50;;;;;;;17.46;85.88;100574.03;5188138;28;20594;-71
2022/09/19 10:58:00;;;;;;;12.75;1.77;;;;;;;17.70;84.96;100577.72;5164348;28;20042;-71
2022/09/19 11:00:51;;;;;;;10.25;1.85;;;;;;;17.34;85.00;100583.53;5165681;28;20022;-71
2022/09/19 11:03:26;;;;;;;10.65;1.50;;;;;;;16.98;85.55;100587.63;5167630;28;20305;-71
2022/09/19 11:06:16;;;;;;;7.72;1.30;;;;;;;17.08;85.39;100573.75;5169683;28;20137;-71
2022/09/19 11:08:49;;;;;;;9.15;1.35;;;;;;;16.92;85.40;100582.69;5178082;28;20371;-71
2022/09/19 11:11:20;;;;;;;7.97;1.38;;;;;;;17.10;85.67;100576.28;5183056;28;20096;-71
2022/09/19 11:14:07;;;;;;;7.28;1.33;;;;;;;17.27;83.10;100576.94;5169365;28;20060;-71
2022/09/19 11:16:57;;;;;;;6.20;1.38;;;;;;;17.32;79.95;100581.94;5165835;28;20041;-71
2022/09/19 11:20:04;;;;;;;9.18;1.35;;;;;;;17.48;83.27;100570.31;5165604;28;20118;-70
2022/09/19 11:22:44;;;;;;;7.38;1.45;;;;;;;17.41;81.79;100571.66;5170583;28;20037;-71
2022/09/19 11:25:34;;;;;;;5.05;1.20;;;;;;;17.18;80.62;100569.56;5188103;28;20117;-70
2022/09/19 11:28:22;;;;;;;6.40;1.17;;;;;;;17.35;81.21;100565.91;5165435;28;20673;-71
2022/09/19 11:31:08;;;;;;;7.03;1.58;;;;;;;17.19;82.37;100570.44;5166739;28;20033;-70
2022/09/19 11:33:41;;;;;;;;;;;;;;;17.09;82.15;100582.50;5169087;28;20031;-71
2022/09/19 11:36:25;;;;;;;7.82;1.30;;;;;;;17.13;81.10;100570.81;5171101;28;19936;-69
2022/09/19 11:39:03;;;;;;;4.80;1.02;;;;;;;17.04;79.57;100581.94;5183981;28;20040;-71
2022/09/19 11:41:37;;;;;;;5.35;1.08;;;;;;;17.18;79.58;100576.66;5184178;28;20054;-71
2022/09/19 11:44:43;;;;;;;5.90;1.10;;;;;;;17.35;79.51;100577.31;5172074;28;20038;-71
2022/09/19 11:47:41;;;;;;;4.68;1.00;;;;;;;17.47;81.59;100581.00;5170660;28;20424;-70
2022/09/19 11:50:20;;;;;;;6.93;1.65;;;;;;;17.42;81.04;100577.78;5171015;28;20034;-71
2022/09/19 11:53:13;;;;;;;6.38;1.50;;;;;;;17.51;81.51;100580.69;5175720;28;20029;-71
2022/09/19 11:55:54;;;;;;;8.55;1.42;;;;;;;17.17;82.45;100585.53;5188690;28;20401;-70
2022/09/19 11:58:42;;;;;;;5.85;1.40;;;;;;;17.44;80.24;100579.38;5170457;28;20531;-71
2022/09/19 12:01:31;;;;;;;6.15;1.17;;;;;;;17.68;82.21;100567.22;5170936;28;20030;-70